createdAt,value
2018-04-10T00:01:05.150Z,8.30
2018-04-10T00:03:32.564Z,8.40
2018-04-10T00:06:00.019Z,8.30
2018-04-10T00:08:27.470Z,8.30
2018-04-10T00:10:54.913Z,8.30
2018-04-10T00:13:22.359Z,8.20
2018-04-10T00:15:49.809Z,8.20
2018-04-10T00:18:17.263Z,8.10
2018-04-10T00:20:44.736Z,8.10
2018-04-10T00:23:12.195Z,8.10
2018-04-10T00:25:39.636Z,8.10
2018-04-10T00:28:07.063Z,8.10
2018-04-10T00:30:34.523Z,8.00
2018-04-10T00:33:01.963Z,7.90
2018-04-10T00:35:29.405Z,7.90
2018-04-10T00:37:56.855Z,7.80
2018-04-10T00:40:24.303Z,7.80
2018-04-10T00:42:51.759Z,7.70
2018-04-10T00:45:19.206Z,7.70
2018-04-10T00:47:46.655Z,7.60
2018-04-10T00:50:14.099Z,7.60
2018-04-10T00:52:42.316Z,7.60
2018-04-10T00:55:09.771Z,7.60
2018-04-10T00:57:37.242Z,7.50
2018-04-10T01:00:04.693Z,7.60
2018-04-10T01:02:32.142Z,7.60
2018-04-10T01:04:59.602Z,7.60
2018-04-10T01:07:27.043Z,7.50
2018-04-10T01:09:54.502Z,7.40
2018-04-10T01:12:21.949Z,7.50
2018-04-10T01:14:49.403Z,7.40
2018-04-10T01:17:16.844Z,7.40
2018-04-10T01:19:44.323Z,7.40
2018-04-10T01:22:11.782Z,7.40
2018-04-10T01:24:39.254Z,7.30
2018-04-10T01:27:06.696Z,7.30
2018-04-10T01:29:34.150Z,7.30
2018-04-10T01:32:01.595Z,7.30
2018-04-10T01:34:29.056Z,7.30
2018-04-10T01:36:56.509Z,7.30
2018-04-10T01:39:23.947Z,7.30
2018-04-10T01:41:52.166Z,7.30
2018-04-10T01:44:19.612Z,7.30
2018-04-10T01:46:47.839Z,7.30
2018-04-10T01:49:16.045Z,7.30
2018-04-10T01:51:43.526Z,7.30
2018-04-10T01:54:11.739Z,7.20
2018-04-10T01:56:39.964Z,7.10
2018-04-10T01:59:07.429Z,7.10
2018-04-10T02:01:34.879Z,7.10
2018-04-10T02:04:02.336Z,7.00
2018-04-10T02:06:29.799Z,7.00
2018-04-10T02:08:57.276Z,7.00
2018-04-10T02:11:24.741Z,7.00
2018-04-10T02:13:52.186Z,7.00
2018-04-10T02:16:19.641Z,7.00
2018-04-10T02:18:47.100Z,6.90
2018-04-10T02:21:14.544Z,7.00
2018-04-10T02:23:42.008Z,7.10
2018-04-10T02:26:09.453Z,7.10
2018-04-10T02:28:36.916Z,7.10
2018-04-10T02:31:04.361Z,7.20
2018-04-10T02:33:31.828Z,7.20
2018-04-10T02:35:59.280Z,7.20
2018-04-10T02:38:26.745Z,7.10
2018-04-10T02:40:54.243Z,7.20
2018-04-10T02:43:21.690Z,7.20
2018-04-10T02:45:49.150Z,7.10
2018-04-10T02:48:16.599Z,7.10
2018-04-10T02:50:44.046Z,7.10
2018-04-10T02:53:11.496Z,7.10
2018-04-10T02:55:38.967Z,7.10
2018-04-10T02:58:06.407Z,7.20
2018-04-10T03:00:33.867Z,7.20
2018-04-10T03:03:01.310Z,7.20
2018-04-10T03:05:28.764Z,7.30
2018-04-10T03:07:56.211Z,7.40
2018-04-10T03:10:23.688Z,7.40
2018-04-10T03:12:51.147Z,7.50
2018-04-10T03:15:18.595Z,7.50
2018-04-10T03:17:46.048Z,7.60
2018-04-10T03:20:13.490Z,7.60
2018-04-10T03:22:40.961Z,7.70
2018-04-10T03:25:08.429Z,7.70
2018-04-10T03:27:35.888Z,7.70
2018-04-10T03:30:03.332Z,7.80
2018-04-10T03:32:30.789Z,7.70
2018-04-10T03:34:58.246Z,7.80
2018-04-10T03:37:25.721Z,7.90
2018-04-10T03:39:53.159Z,7.90
2018-04-10T03:42:20.615Z,8.00
2018-04-10T03:44:48.060Z,8.00
2018-04-10T03:47:15.511Z,8.00
2018-04-10T03:49:42.948Z,8.00
2018-04-10T03:52:11.161Z,8.00
2018-04-10T03:54:38.619Z,8.00
2018-04-10T03:57:06.071Z,8.10
2018-04-10T03:59:33.524Z,8.00
2018-04-10T04:02:00.980Z,8.00
2018-04-10T04:04:28.423Z,8.00
2018-04-10T04:06:55.863Z,8.00
2018-04-10T04:09:24.091Z,7.90
2018-04-10T04:11:51.538Z,7.90
2018-04-10T04:14:18.987Z,7.90
2018-04-10T04:16:58.004Z,7.80
2018-04-10T04:19:37.255Z,7.80
2018-04-10T04:22:16.544Z,7.80
2018-04-10T04:24:44.003Z,7.90
2018-04-10T04:27:11.460Z,7.90
2018-04-10T04:29:38.927Z,7.90
2018-04-10T04:32:07.142Z,8.00
2018-04-10T04:34:34.599Z,7.90
2018-04-10T04:37:02.051Z,8.00
2018-04-10T04:39:29.497Z,8.00
2018-04-10T04:41:57.386Z,8.10
2018-04-10T04:44:24.839Z,8.10
2018-04-10T04:46:52.299Z,8.10
2018-04-10T04:49:19.755Z,8.00
2018-04-10T04:51:47.215Z,8.00
2018-04-10T04:54:15.428Z,8.10
2018-04-10T04:56:43.666Z,8.20
2018-04-10T04:59:11.120Z,8.20
2018-04-10T05:01:38.575Z,8.30
2018-04-10T05:04:06.013Z,8.30
2018-04-10T05:06:33.472Z,8.30
2018-04-10T05:09:00.921Z,8.30
2018-04-10T05:11:28.422Z,8.30
2018-04-10T05:13:55.866Z,8.40
2018-04-10T05:16:23.332Z,8.40
2018-04-10T05:18:50.786Z,8.40
2018-04-10T05:21:18.995Z,8.50
2018-04-10T05:23:47.226Z,8.50
2018-04-10T05:26:14.682Z,8.50
2018-04-10T05:28:42.131Z,8.60
2018-04-10T05:31:09.583Z,8.70
2018-04-10T05:33:37.049Z,8.70
2018-04-10T05:36:04.496Z,8.70
2018-04-10T05:38:31.948Z,8.80
2018-04-10T05:40:59.397Z,8.80
2018-04-10T05:43:26.855Z,8.90
2018-04-10T05:45:54.307Z,9.00
2018-04-10T05:48:21.759Z,9.10
2018-04-10T05:50:49.199Z,9.20
2018-04-10T05:53:17.427Z,9.50
2018-04-10T05:55:44.876Z,9.50
2018-04-10T05:58:12.332Z,9.60
2018-04-10T06:00:39.791Z,9.80
2018-04-10T06:03:07.249Z,10.00
2018-04-10T06:05:34.857Z,10.10
2018-04-10T06:08:03.075Z,10.40
2018-04-10T06:10:30.531Z,10.40
2018-04-10T06:12:57.991Z,10.60
2018-04-10T06:15:25.442Z,10.70
2018-04-10T06:17:52.899Z,10.80
2018-04-10T06:20:20.371Z,11.00
2018-04-10T06:22:47.827Z,11.20
2018-04-10T06:25:15.292Z,11.30
2018-04-10T06:27:42.739Z,11.50
2018-04-10T06:30:10.240Z,11.70
2018-04-10T06:32:37.691Z,11.80
2018-04-10T06:35:05.147Z,11.90
2018-04-10T06:37:32.615Z,12.00
2018-04-10T06:40:00.827Z,12.40
2018-04-10T06:42:28.291Z,12.40
2018-04-10T06:44:55.745Z,12.60
2018-04-10T06:47:23.212Z,12.70
2018-04-10T06:49:50.664Z,12.70
2018-04-10T06:52:18.121Z,12.80
2018-04-10T06:54:45.571Z,13.10
2018-04-10T06:57:13.036Z,13.30
2018-04-10T06:59:40.495Z,13.60
2018-04-10T07:02:07.987Z,13.80
2018-04-10T07:04:35.443Z,14.00
2018-04-10T07:07:02.899Z,14.00
2018-04-10T07:09:30.568Z,14.30
2018-04-10T07:11:58.127Z,14.60
2018-04-10T07:14:26.586Z,14.70
2018-04-10T07:16:54.119Z,14.70
2018-04-10T07:19:21.599Z,14.50
2018-04-10T07:21:49.063Z,14.80
2018-04-10T07:24:16.551Z,14.90
2018-04-10T07:26:44.768Z,14.90
2018-04-10T07:29:12.246Z,14.90
2018-04-10T07:31:40.483Z,15.00
2018-04-10T07:34:07.988Z,15.00
2018-04-10T07:36:35.412Z,14.90
2018-04-10T07:39:02.880Z,15.20
2018-04-10T07:41:30.333Z,15.30
2018-04-10T07:43:57.801Z,15.40
2018-04-10T07:46:25.294Z,15.40
2018-04-10T07:48:53.515Z,15.20
2018-04-10T07:51:20.985Z,15.20
2018-04-10T07:53:48.437Z,15.80
2018-04-10T07:56:15.899Z,16.00
2018-04-10T07:58:43.352Z,16.00
2018-04-10T08:01:10.817Z,16.60
2018-04-10T08:03:38.268Z,17.00
2018-04-10T08:06:05.739Z,17.30
2018-04-10T08:08:33.296Z,17.00
2018-04-10T08:11:00.747Z,17.40
2018-04-10T08:13:28.217Z,17.70
2018-04-10T08:15:55.692Z,17.80
2018-04-10T08:18:23.154Z,18.00
2018-04-10T08:20:50.630Z,17.80
2018-04-10T08:23:18.856Z,17.90
2018-04-10T08:25:46.319Z,17.90
2018-04-10T08:28:13.774Z,18.00
2018-04-10T08:30:41.244Z,18.00
2018-04-10T08:33:09.464Z,18.10
2018-04-10T08:35:36.919Z,18.00
2018-04-10T08:38:04.391Z,18.10
2018-04-10T08:40:31.848Z,18.20
2018-04-10T08:42:59.315Z,17.40
2018-04-10T08:45:26.776Z,17.40
2018-04-10T08:47:54.243Z,17.20
2018-04-10T08:50:21.698Z,17.60
2018-04-10T08:52:49.208Z,17.70
2018-04-10T08:55:16.607Z,17.30
2018-04-10T08:57:44.097Z,17.20
2018-04-10T09:00:11.575Z,17.40
2018-04-10T09:02:39.881Z,17.10
2018-04-10T09:05:07.325Z,17.10
2018-04-10T09:07:34.790Z,16.80
2018-04-10T09:10:02.439Z,16.80
2018-04-10T09:12:29.924Z,16.90
2018-04-10T09:14:57.372Z,17.00
2018-04-10T09:17:24.841Z,17.00
2018-04-10T09:19:52.309Z,17.40
2018-04-10T09:22:19.797Z,17.60
2018-04-10T09:24:47.249Z,17.80
2018-04-10T09:27:16.300Z,17.60
2018-04-10T09:29:43.759Z,17.60
2018-04-10T09:32:11.217Z,17.80
2018-04-10T09:34:38.685Z,17.80
2018-04-10T09:37:06.128Z,18.00
2018-04-10T09:39:33.593Z,17.90
2018-04-10T09:42:01.074Z,17.80
2018-04-10T09:44:28.535Z,17.60
2018-04-10T09:46:55.988Z,17.60
2018-04-10T09:49:23.458Z,17.70
2018-04-10T09:51:50.908Z,17.90
2018-04-10T09:54:18.384Z,18.00
2018-04-10T09:56:45.853Z,18.10
2018-04-10T09:59:14.085Z,18.30
2018-04-10T10:01:41.552Z,18.30
2018-04-10T10:04:09.009Z,18.30
2018-04-10T10:06:36.479Z,18.60
2018-04-10T10:09:04.030Z,19.00
2018-04-10T10:11:31.509Z,19.30
2018-04-10T10:13:59.732Z,18.90
2018-04-10T10:16:27.191Z,18.90
2018-04-10T10:18:54.638Z,19.30
2018-04-10T10:21:22.105Z,19.30
2018-04-10T10:23:49.556Z,19.10
2018-04-10T10:26:17.017Z,19.20
2018-04-10T10:28:44.469Z,19.70
2018-04-10T10:31:11.923Z,19.90
2018-04-10T10:33:39.379Z,20.50
2018-04-10T10:36:06.838Z,20.80
2018-04-10T10:38:34.302Z,20.80
2018-04-10T10:41:01.776Z,20.30
2018-04-10T10:43:29.236Z,20.90
2018-04-10T10:45:56.714Z,21.10
2018-04-10T10:48:24.162Z,22.00
2018-04-10T10:50:51.641Z,22.30
2018-04-10T10:53:19.862Z,24.00
2018-04-10T10:55:47.370Z,23.90
2018-04-10T10:58:14.828Z,24.60
2018-04-10T11:00:43.092Z,25.50
2018-04-10T11:03:10.524Z,25.40
2018-04-10T11:05:37.976Z,25.10
2018-04-10T11:08:05.456Z,25.20
2018-04-10T11:10:32.908Z,25.20
2018-04-10T11:13:00.370Z,25.80
2018-04-10T11:15:27.812Z,25.80
2018-04-10T11:17:55.295Z,26.70
2018-04-10T11:20:22.740Z,26.80
2018-04-10T11:22:50.213Z,27.20
2018-04-10T11:25:17.663Z,26.80
2018-04-10T11:27:45.138Z,27.00
2018-04-10T11:30:13.363Z,28.10
2018-04-10T11:32:40.837Z,28.00
2018-04-10T11:35:08.298Z,28.20
2018-04-10T11:37:35.761Z,28.20
2018-04-10T11:40:03.222Z,28.30
2018-04-10T11:42:30.680Z,27.40
2018-04-10T11:44:58.129Z,27.90
2018-04-10T11:47:25.662Z,27.80
2018-04-10T11:49:53.833Z,27.70
2018-04-10T11:52:21.326Z,27.70
2018-04-10T11:54:48.780Z,27.40
2018-04-10T11:57:16.225Z,26.60
2018-04-10T11:59:44.454Z,25.60
2018-04-10T12:02:11.919Z,25.60
2018-04-10T12:04:39.444Z,25.50
2018-04-10T12:07:06.898Z,24.40
2018-04-10T12:09:35.151Z,25.80
2018-04-10T12:12:02.603Z,25.80
2018-04-10T12:14:30.075Z,26.00
2018-04-10T12:16:57.524Z,26.00
2018-04-10T12:19:25.001Z,25.80
2018-04-10T12:21:52.452Z,26.10
2018-04-10T12:24:19.967Z,26.20
2018-04-10T12:26:48.149Z,26.70
2018-04-10T12:29:15.620Z,26.70
2018-04-10T12:31:43.078Z,27.40
2018-04-10T12:34:10.557Z,28.20
2018-04-10T12:36:38.031Z,28.40
2018-04-10T12:39:06.463Z,28.70
2018-04-10T12:41:33.904Z,28.40
2018-04-10T12:44:01.376Z,28.30
2018-04-10T12:46:28.837Z,28.90
2018-04-10T12:48:56.308Z,28.70
2018-04-10T12:51:23.782Z,28.50
2018-04-10T12:53:51.242Z,28.60
2018-04-10T12:56:19.496Z,28.20
2018-04-10T12:58:46.963Z,28.10
2018-04-10T13:01:14.432Z,28.10
2018-04-10T13:03:42.688Z,27.60
2018-04-10T13:06:10.161Z,27.60
2018-04-10T13:08:37.639Z,27.60
2018-04-10T13:11:05.904Z,26.70
2018-04-10T13:13:34.126Z,25.80
2018-04-10T13:16:01.601Z,25.80
2018-04-10T13:18:29.843Z,25.70
2018-04-10T13:20:57.405Z,25.70
2018-04-10T13:23:24.868Z,25.60
2018-04-10T13:25:52.360Z,25.60
2018-04-10T13:28:19.873Z,25.30
2018-04-10T13:30:47.355Z,25.30
2018-04-10T13:33:14.826Z,25.30
2018-04-10T13:35:42.304Z,25.10
2018-04-10T13:38:09.817Z,24.50
2018-04-10T13:40:38.000Z,24.80
2018-04-10T13:43:05.486Z,24.80
2018-04-10T13:45:32.952Z,25.10
2018-04-10T13:48:00.438Z,24.90
2018-04-10T13:50:28.673Z,24.30
2018-04-10T13:52:56.152Z,24.20
2018-04-10T13:55:24.394Z,24.20
2018-04-10T13:57:51.904Z,24.10
2018-04-10T14:00:20.120Z,23.80
2018-04-10T14:02:47.872Z,23.80
2018-04-10T14:05:26.810Z,23.80
2018-04-10T14:07:54.660Z,23.80
2018-04-10T14:13:19.077Z,24.00
2018-04-10T14:15:46.557Z,24.00
2018-04-10T14:18:14.046Z,24.10
2018-04-10T14:20:41.521Z,23.60
2018-04-10T14:23:09.009Z,23.30
2018-04-10T14:25:36.560Z,23.40
2018-04-10T14:28:04.096Z,23.50
2018-04-10T14:30:31.617Z,23.60
2018-04-10T14:32:59.153Z,24.10
2018-04-10T14:35:26.636Z,24.40
2018-04-10T14:37:54.116Z,24.40
2018-04-10T14:40:21.671Z,24.20
2018-04-10T14:42:49.200Z,24.10
2018-04-10T14:45:16.699Z,24.20
2018-04-10T14:47:44.150Z,24.50
2018-04-10T14:50:11.620Z,24.70
2018-04-10T14:52:39.093Z,24.70
2018-04-10T14:55:16.378Z,24.90
2018-04-10T14:57:43.832Z,24.80
2018-04-10T15:00:11.313Z,24.80
2018-04-10T15:02:38.781Z,24.60
2018-04-10T15:05:07.089Z,24.20
2018-04-10T15:07:34.627Z,24.20
2018-04-10T15:10:03.104Z,23.80
2018-04-10T15:12:31.372Z,23.40
2018-04-10T15:14:59.670Z,23.40
2018-04-10T15:17:27.189Z,23.40
2018-04-10T15:19:54.718Z,23.20
2018-04-10T15:22:22.312Z,23.10
2018-04-10T15:24:50.059Z,23.20
2018-04-10T15:27:17.603Z,23.10
2018-04-10T15:29:45.407Z,23.00
2018-04-10T15:32:12.887Z,23.00
2018-04-10T15:34:40.361Z,22.70
2018-04-10T15:37:07.824Z,22.60
2018-04-10T15:39:35.291Z,22.30
2018-04-10T15:42:02.789Z,22.00
2018-04-10T15:44:30.294Z,21.80
2018-04-10T15:46:57.778Z,21.50
2018-04-10T15:49:25.203Z,21.30
2018-04-10T15:51:52.676Z,21.30
2018-04-10T15:54:20.178Z,21.30
2018-04-10T15:56:48.508Z,21.10
2018-04-10T15:59:16.055Z,21.10
2018-04-10T16:01:43.696Z,21.00
2018-04-10T16:04:11.248Z,21.00
2018-04-10T16:06:38.807Z,21.00
2018-04-10T16:09:07.119Z,20.30
2018-04-10T16:11:34.625Z,20.30
2018-04-10T16:14:02.119Z,20.20
2018-04-10T16:16:29.651Z,20.00
2018-04-10T16:18:57.932Z,19.70
2018-04-10T16:21:25.452Z,19.70
2018-04-10T16:23:52.920Z,19.70
2018-04-10T16:26:20.408Z,19.60
2018-04-10T16:28:48.632Z,19.40
2018-04-10T16:31:16.176Z,19.30
2018-04-10T16:33:43.716Z,19.40
2018-04-10T16:36:11.266Z,19.30
2018-04-10T16:38:39.524Z,19.10
2018-04-10T16:41:07.013Z,19.10
2018-04-10T16:43:34.540Z,19.10
2018-04-10T16:46:02.850Z,18.70
2018-04-10T16:48:30.386Z,18.70
2018-04-10T16:50:57.898Z,18.70
2018-04-10T16:53:25.450Z,18.60
2018-04-10T16:55:53.843Z,18.40
2018-04-10T16:58:21.489Z,18.30
2018-04-10T17:00:48.970Z,18.30
2018-04-10T17:03:16.474Z,18.20
2018-04-10T17:05:44.727Z,18.10
2018-04-10T17:08:12.209Z,18.10
2018-04-10T17:10:39.659Z,17.90
2018-04-10T17:13:07.892Z,17.80
2018-04-10T17:15:35.358Z,17.80
2018-04-10T17:18:02.807Z,17.80
2018-04-10T17:20:30.293Z,17.70
2018-04-10T17:22:57.752Z,17.60
2018-04-10T17:25:25.988Z,17.40
2018-04-10T17:27:53.467Z,17.40
2018-04-10T17:30:20.965Z,17.30
2018-04-10T17:32:48.455Z,17.30
2018-04-10T17:35:15.948Z,17.30
2018-04-10T17:37:43.432Z,17.20
2018-04-10T17:40:10.917Z,17.20
2018-04-10T17:42:38.406Z,17.10
2018-04-10T17:45:05.883Z,17.00
2018-04-10T17:47:34.111Z,16.90
2018-04-10T17:50:01.571Z,16.80
2018-04-10T17:52:29.126Z,16.90
2018-04-10T17:54:56.591Z,16.90
2018-04-10T17:57:24.052Z,16.80
2018-04-10T17:59:51.516Z,16.80
2018-04-10T18:02:19.076Z,16.70
2018-04-10T18:04:46.538Z,16.80
2018-04-10T18:07:14.005Z,16.70
2018-04-10T18:09:41.469Z,16.60
2018-04-10T18:12:08.943Z,16.60
2018-04-10T18:14:36.408Z,16.40
2018-04-10T18:17:03.955Z,16.40
2018-04-10T18:19:32.438Z,16.40
2018-04-10T18:21:59.942Z,16.40
2018-04-10T18:24:27.396Z,16.40
2018-04-10T18:26:54.989Z,16.30
2018-04-10T18:29:22.466Z,16.30
2018-04-10T18:31:49.944Z,16.30
2018-04-10T18:34:17.411Z,16.20
2018-04-10T18:36:44.985Z,16.10
2018-04-10T18:39:12.552Z,16.10
2018-04-10T18:41:40.075Z,16.10
2018-04-10T18:44:07.501Z,16.00
2018-04-10T18:46:34.988Z,16.10
2018-04-10T18:49:02.719Z,16.10
2018-04-10T18:51:30.316Z,15.90
2018-04-10T18:53:57.800Z,15.80
2018-04-10T18:56:25.312Z,15.70
2018-04-10T18:58:53.566Z,15.60
2018-04-10T19:01:21.042Z,15.60
2018-04-10T19:03:48.599Z,15.50
2018-04-10T19:06:16.832Z,15.40
2018-04-10T19:08:44.304Z,15.30
2018-04-10T19:11:11.786Z,15.20
2018-04-10T19:13:39.306Z,14.90
2018-04-10T19:16:06.797Z,14.60
2018-04-10T19:18:34.260Z,14.20
2018-04-10T19:21:01.724Z,14.00
2018-04-10T19:23:29.946Z,13.60
2018-04-10T19:25:57.415Z,13.60
2018-04-10T19:28:24.880Z,13.60
2018-04-10T19:30:52.356Z,13.50
2018-04-10T19:33:19.811Z,13.30
2018-04-10T19:35:47.273Z,13.30
2018-04-10T19:38:14.945Z,13.30
2018-04-10T19:40:43.242Z,13.20
2018-04-10T19:43:11.748Z,13.20
2018-04-10T19:45:39.364Z,13.20
2018-04-10T19:48:07.744Z,13.20
2018-04-10T19:50:36.002Z,13.10
2018-04-10T19:53:03.478Z,13.00
2018-04-10T19:55:31.726Z,12.90
2018-04-10T19:57:59.191Z,12.90
2018-04-10T20:00:26.659Z,12.80
2018-04-10T20:02:54.117Z,12.80
2018-04-10T20:05:21.580Z,12.70
2018-04-10T20:07:49.810Z,12.60
2018-04-10T20:10:17.286Z,12.60
2018-04-10T20:12:44.736Z,12.60
2018-04-10T20:15:12.204Z,12.60
2018-04-10T20:17:39.656Z,12.40
2018-04-10T20:20:07.116Z,12.50
2018-04-10T20:22:34.579Z,12.50
2018-04-10T20:25:02.035Z,12.40
2018-04-10T20:27:29.499Z,12.30
2018-04-10T20:29:56.955Z,12.30
2018-04-10T20:32:24.412Z,12.30
2018-04-10T20:34:51.875Z,12.20
2018-04-10T20:37:19.368Z,12.10
2018-04-10T20:39:46.844Z,12.10
2018-04-10T20:42:14.282Z,12.10
2018-04-10T20:44:41.731Z,12.00
2018-04-10T20:47:09.189Z,12.00
2018-04-10T20:49:37.400Z,12.00
2018-04-10T20:52:04.854Z,12.00
2018-04-10T20:54:32.308Z,11.90
2018-04-10T20:56:59.778Z,11.90
2018-04-10T20:59:27.219Z,11.90
2018-04-10T21:01:54.674Z,11.90
2018-04-10T21:04:22.127Z,11.80
2018-04-10T21:06:49.582Z,11.70
2018-04-10T21:09:17.043Z,11.70
2018-04-10T21:11:44.495Z,11.70
2018-04-10T21:14:11.952Z,11.70
2018-04-10T21:16:39.402Z,11.60
2018-04-10T21:19:06.849Z,11.60
2018-04-10T21:21:34.294Z,11.60
2018-04-10T21:24:02.503Z,11.40
2018-04-10T21:26:30.722Z,11.30
2018-04-10T21:28:58.170Z,11.30
2018-04-10T21:31:25.625Z,11.30
2018-04-10T21:33:53.067Z,11.30
2018-04-10T21:36:20.505Z,11.30
2018-04-10T21:38:47.942Z,11.30
2018-04-10T21:41:15.391Z,11.30
2018-04-10T21:43:42.862Z,11.20
2018-04-10T21:46:10.306Z,11.30
2018-04-10T21:48:37.756Z,11.30
2018-04-10T21:51:05.967Z,11.30
2018-04-10T21:53:33.419Z,11.30
2018-04-10T21:56:00.861Z,11.30
2018-04-10T21:58:28.310Z,11.30
2018-04-10T22:00:55.751Z,11.40
2018-04-10T22:03:23.979Z,11.40
2018-04-10T22:05:51.423Z,11.40
2018-04-10T22:08:18.879Z,11.40
2018-04-10T22:10:46.329Z,11.50
2018-04-10T22:13:13.790Z,11.50
2018-04-10T22:15:41.243Z,11.50
2018-04-10T22:18:08.701Z,11.60
2018-04-10T22:20:36.147Z,11.60
2018-04-10T22:23:03.599Z,11.60
2018-04-10T22:25:31.063Z,11.60
2018-04-10T22:27:58.507Z,11.50
2018-04-10T22:30:25.967Z,11.50
2018-04-10T22:32:53.380Z,11.50
2018-04-10T22:35:21.604Z,11.50
2018-04-10T22:37:49.051Z,11.50
2018-04-10T22:40:16.503Z,11.50
2018-04-10T22:42:43.959Z,11.50
2018-04-10T22:45:11.415Z,11.50
2018-04-10T22:47:38.859Z,11.50
2018-04-10T22:50:06.338Z,11.60
2018-04-10T22:52:33.784Z,11.60
2018-04-10T22:55:01.243Z,11.60
2018-04-10T22:57:28.699Z,11.60
2018-04-10T22:59:56.155Z,11.50
2018-04-10T23:02:23.613Z,11.60
2018-04-10T23:04:51.079Z,11.60
2018-04-10T23:07:18.543Z,11.60
2018-04-10T23:09:45.999Z,11.50
2018-04-10T23:12:13.460Z,11.60
2018-04-10T23:14:40.922Z,11.40
2018-04-10T23:17:08.386Z,11.30
2018-04-10T23:19:35.835Z,11.20
2018-04-10T23:22:04.071Z,11.10
2018-04-10T23:24:31.528Z,11.10
2018-04-10T23:26:58.991Z,11.10
2018-04-10T23:29:27.211Z,10.90
2018-04-10T23:31:55.431Z,10.90
2018-04-10T23:34:22.883Z,10.90
2018-04-10T23:36:50.344Z,10.90
2018-04-10T23:39:17.806Z,10.80
2018-04-10T23:41:45.276Z,10.70
2018-04-10T23:44:12.728Z,10.70
2018-04-10T23:46:40.183Z,10.80
2018-04-10T23:49:07.635Z,10.80
2018-04-10T23:51:35.091Z,10.80
2018-04-10T23:54:02.547Z,10.80
2018-04-10T23:56:30.011Z,10.90
2018-04-10T23:58:57.465Z,10.90
